createdAt,value
2018-08-22T00:02:05.235Z,7.30
2018-08-22T00:04:42.856Z,7.83
2018-08-22T00:07:19.995Z,7.23
2018-08-22T00:09:55.567Z,8.13
2018-08-22T00:12:32.055Z,7.10
2018-08-22T00:15:08.997Z,6.87
2018-08-22T00:17:44.977Z,7.10
2018-08-22T00:20:26.607Z,7.23
2018-08-22T00:23:03.960Z,7.20
2018-08-22T00:25:41.553Z,7.77
2018-08-22T00:28:19.560Z,7.73
2018-08-22T00:30:55.717Z,7.50
2018-08-22T00:33:32.722Z,7.60
2018-08-22T00:36:08.673Z,6.93
2018-08-22T00:38:46.002Z,7.57
2018-08-22T00:41:23.326Z,6.67
2018-08-22T00:44:03.185Z,7.73
2018-08-22T00:46:39.374Z,8.13
2018-08-22T00:49:16.691Z,8.40
2018-08-22T00:51:53.716Z,8.30
2018-08-22T00:54:30.314Z,8.60
2018-08-22T00:57:06.528Z,7.97
2018-08-22T00:59:42.966Z,8.73
2018-08-22T01:02:20.779Z,10.37
2018-08-22T01:04:57.743Z,9.27
2018-08-22T01:07:34.151Z,9.30
2018-08-22T01:10:11.784Z,10.43
2018-08-22T01:12:51.411Z,10.23
2018-08-22T01:15:30.526Z,10.60
2018-08-22T01:18:06.406Z,10.33
2018-08-22T01:20:43.790Z,11.90
2018-08-22T01:23:19.700Z,11.53
2018-08-22T01:25:55.745Z,11.20
2018-08-22T01:28:31.267Z,11.03
2018-08-22T01:31:08.850Z,10.93
2018-08-22T01:33:44.634Z,10.83
2018-08-22T01:36:22.722Z,13.23
2018-08-22T01:39:00.104Z,13.37
2018-08-22T01:41:37.031Z,16.23
2018-08-22T01:44:13.382Z,14.20
2018-08-22T01:46:50.562Z,15.90
2018-08-22T01:49:29.902Z,14.20
2018-08-22T01:52:07.093Z,14.33
2018-08-22T01:54:42.605Z,13.47
2018-08-22T01:57:19.838Z,13.43
2018-08-22T01:59:57.204Z,13.20
2018-08-22T02:02:33.618Z,13.60
2018-08-22T02:05:11.236Z,12.60
2018-08-22T02:07:48.603Z,12.30
2018-08-22T02:10:24.598Z,14.07
2018-08-22T02:13:01.796Z,13.23
2018-08-22T02:15:38.387Z,13.63
2018-08-22T02:18:14.606Z,14.37
2018-08-22T02:20:53.988Z,14.03
2018-08-22T02:23:29.999Z,13.70
2018-08-22T02:26:05.784Z,13.70
2018-08-22T02:28:45.431Z,13.80
2018-08-22T02:31:24.806Z,12.13
2018-08-22T02:34:03.754Z,13.83
2018-08-22T02:36:41.288Z,13.83
2018-08-22T02:39:18.482Z,13.17
2018-08-22T02:41:55.724Z,12.77
2018-08-22T02:44:32.819Z,12.33
2018-08-22T02:47:10.225Z,12.80
2018-08-22T02:49:51.801Z,13.70
2018-08-22T02:52:29.168Z,12.27
2018-08-22T02:55:04.634Z,12.17
2018-08-22T02:57:40.412Z,13.00
2018-08-22T03:00:16.863Z,13.03
2018-08-22T03:02:52.449Z,14.00
2018-08-22T03:05:30.097Z,12.77
2018-08-22T03:08:07.201Z,12.70
2018-08-22T03:10:42.956Z,12.90
2018-08-22T03:13:20.558Z,12.83
2018-08-22T03:15:57.824Z,12.90
2018-08-22T03:18:35.308Z,13.00
2018-08-22T03:21:11.390Z,12.67
2018-08-22T03:23:48.623Z,12.23
2018-08-22T03:26:24.638Z,12.20
2018-08-22T03:29:00.338Z,12.50
2018-08-22T03:31:36.282Z,11.53
2018-08-22T03:34:12.013Z,12.47
2018-08-22T03:36:49.570Z,13.43
2018-08-22T03:39:26.674Z,12.63
2018-08-22T03:42:03.086Z,13.37
2018-08-22T03:44:38.679Z,14.03
2018-08-22T03:47:14.818Z,14.27
2018-08-22T03:49:50.547Z,14.70
2018-08-22T03:52:28.867Z,15.07
2018-08-22T03:55:04.665Z,13.90
2018-08-22T03:57:41.981Z,14.37
2018-08-22T04:00:18.297Z,14.37
2018-08-22T04:02:55.840Z,13.73
2018-08-22T04:05:33.947Z,14.17
2018-08-22T04:08:09.847Z,13.17
2018-08-22T04:10:45.649Z,12.00
2018-08-22T04:13:23.828Z,12.87
2018-08-22T04:16:00.081Z,12.23
2018-08-22T04:18:37.221Z,13.53
2018-08-22T04:21:12.970Z,13.00
2018-08-22T04:23:50.023Z,14.43
2018-08-22T04:26:32.140Z,12.23
2018-08-22T04:29:07.663Z,13.47
2018-08-22T04:31:43.552Z,12.37
2018-08-22T04:34:22.146Z,12.77
2018-08-22T04:36:57.622Z,12.23
2018-08-22T04:39:33.343Z,13.20
2018-08-22T04:42:10.823Z,12.87
2018-08-22T04:44:47.330Z,13.00
2018-08-22T04:47:24.122Z,14.60
2018-08-22T04:49:59.210Z,14.23
2018-08-22T04:52:35.563Z,14.20
2018-08-22T04:55:11.288Z,14.20
2018-08-22T04:57:50.397Z,13.00
2018-08-22T05:00:27.078Z,12.70
2018-08-22T05:03:02.685Z,13.83
2018-08-22T05:05:38.428Z,14.10
2018-08-22T05:08:15.772Z,15.30
2018-08-22T05:10:52.638Z,13.47
2018-08-22T05:13:28.573Z,13.10
2018-08-22T05:31:58.608Z,17.50
2018-08-22T05:34:35.993Z,16.67
2018-08-22T05:37:12.924Z,18.00
2018-08-22T05:39:48.416Z,17.20
2018-08-22T05:42:29.892Z,18.63
2018-08-22T05:45:06.478Z,19.60
2018-08-22T05:47:42.504Z,18.27
2018-08-22T05:50:21.390Z,19.77
2018-08-22T05:52:58.618Z,18.20
2018-08-22T05:55:34.526Z,21.80
2018-08-22T05:58:10.429Z,22.20
2018-08-22T06:00:47.962Z,29.37
2018-08-22T06:03:25.418Z,29.37
2018-08-22T06:06:02.802Z,28.20
2018-08-22T06:08:38.467Z,31.13
2018-08-22T06:11:16.003Z,29.77
2018-08-22T06:13:53.050Z,27.90
2018-08-22T06:16:29.505Z,25.70
2018-08-22T06:19:07.927Z,25.13
2018-08-22T06:21:45.385Z,26.63
2018-08-22T06:24:21.744Z,27.50
2018-08-22T06:26:58.788Z,26.67
2018-08-22T06:29:38.244Z,34.70
2018-08-22T06:32:15.418Z,28.20
2018-08-22T06:34:51.594Z,26.30
2018-08-22T06:37:27.257Z,28.17
2018-08-22T06:40:05.477Z,25.17
2018-08-22T06:42:42.774Z,26.33
2018-08-22T06:45:18.869Z,23.97
2018-08-22T06:47:58.245Z,26.20
2018-08-22T06:50:35.128Z,26.83
2018-08-22T06:53:14.502Z,25.80
2018-08-22T06:55:54.103Z,28.13
2018-08-22T06:58:30.928Z,28.10
2018-08-22T07:01:08.025Z,25.33
2018-08-22T07:03:45.577Z,29.77
2018-08-22T07:06:22.383Z,27.47
2018-08-22T07:08:58.556Z,29.70
2018-08-22T07:11:35.731Z,30.20
2018-08-22T07:14:11.709Z,29.70
2018-08-22T07:16:47.664Z,28.90
2018-08-22T07:19:25.071Z,32.13
2018-08-22T07:22:04.378Z,28.90
2018-08-22T07:24:41.534Z,30.37
2018-08-22T07:27:17.464Z,29.50
2018-08-22T07:29:54.534Z,31.40
2018-08-22T07:32:31.838Z,30.30
2018-08-22T07:35:07.768Z,31.23
2018-08-22T07:37:43.915Z,28.57
2018-08-22T07:40:20.137Z,29.20
2018-08-22T07:42:55.798Z,30.67
2018-08-22T07:45:33.004Z,28.90
2018-08-22T07:48:10.771Z,28.50
2018-08-22T07:50:47.978Z,27.60
2018-08-22T07:53:27.016Z,26.70
2018-08-22T07:56:04.363Z,30.57
2018-08-22T07:58:44.113Z,29.30
2018-08-22T08:01:20.063Z,28.63
2018-08-22T08:03:56.281Z,28.73
2018-08-22T08:06:35.874Z,26.00
2018-08-22T08:09:14.233Z,23.57
2018-08-22T08:11:51.482Z,25.63
2018-08-22T08:14:31.450Z,25.80
2018-08-22T08:17:08.516Z,24.00
2018-08-22T08:19:44.502Z,23.17
2018-08-22T08:22:21.586Z,21.23
2018-08-22T08:24:58.210Z,20.50
2018-08-22T08:27:35.544Z,22.03
2018-08-22T08:30:13.490Z,22.07
2018-08-22T08:32:49.326Z,21.43
2018-08-22T08:35:26.510Z,24.00
2018-08-22T08:38:04.379Z,24.53
2018-08-22T08:40:43.237Z,24.10
2018-08-22T08:43:19.601Z,23.73
2018-08-22T08:45:57.269Z,22.90
2018-08-22T08:48:33.054Z,24.30
2018-08-22T08:51:09.795Z,24.13
2018-08-22T08:53:45.464Z,23.33
2018-08-22T08:56:23.571Z,25.10
2018-08-22T08:59:00.485Z,22.90
2018-08-22T09:01:37.843Z,22.60
2018-08-22T09:04:17.660Z,23.30
2018-08-22T09:06:54.150Z,20.33
2018-08-22T09:09:30.998Z,20.10
2018-08-22T09:12:08.793Z,20.50
2018-08-22T09:14:45.977Z,19.47
2018-08-22T09:17:25.600Z,20.17
2018-08-22T09:20:03.190Z,21.27
2018-08-22T09:22:41.025Z,21.00
2018-08-22T09:25:16.759Z,22.57
2018-08-22T09:27:54.040Z,20.30
2018-08-22T09:30:31.144Z,18.60
2018-08-22T09:33:07.343Z,17.83
2018-08-22T09:35:43.081Z,17.80
2018-08-22T09:38:20.351Z,16.50
2018-08-22T09:40:56.417Z,18.27
2018-08-22T09:43:35.823Z,14.60
2018-08-22T09:46:11.629Z,14.83
2018-08-22T09:48:47.678Z,15.60
2018-08-22T09:51:23.101Z,16.40
2018-08-22T09:53:59.195Z,14.87
2018-08-22T09:56:35.661Z,14.47
2018-08-22T09:59:12.542Z,15.43
2018-08-22T10:01:51.511Z,13.57
2018-08-22T10:04:28.016Z,12.90
2018-08-22T10:07:07.417Z,11.57
2018-08-22T10:09:47.059Z,12.40
2018-08-22T10:12:24.382Z,13.03
2018-08-22T10:15:01.059Z,12.93
2018-08-22T10:17:42.436Z,12.67
2018-08-22T10:20:19.174Z,11.93
2018-08-22T10:22:58.241Z,12.23
2018-08-22T10:25:35.359Z,11.50
2018-08-22T10:28:11.188Z,13.30
2018-08-22T10:30:48.258Z,15.00
2018-08-22T10:33:24.222Z,14.30
2018-08-22T10:36:00.281Z,13.93
2018-08-22T10:38:36.245Z,11.27
2018-08-22T10:41:18.487Z,12.63
2018-08-22T10:43:55.158Z,13.80
2018-08-22T10:46:31.842Z,13.93
2018-08-22T10:49:07.536Z,15.73
2018-08-22T10:51:44.693Z,12.83
2018-08-22T10:54:20.412Z,14.20
2018-08-22T10:56:57.584Z,14.43
2018-08-22T10:59:39.277Z,12.00
2018-08-22T11:02:17.671Z,14.77
2018-08-22T11:04:55.484Z,14.67
2018-08-22T11:07:32.581Z,11.60
2018-08-22T11:10:08.984Z,9.37
2018-08-22T11:12:47.169Z,10.30
2018-08-22T11:15:24.531Z,11.57
2018-08-22T11:18:03.044Z,10.87
2018-08-22T11:20:44.209Z,9.97
2018-08-22T11:23:31.301Z,9.90
2018-08-22T11:26:17.759Z,11.97
2018-08-22T11:28:59.723Z,13.00
2018-08-22T11:31:46.465Z,10.70
2018-08-22T11:34:34.045Z,12.20
2018-08-22T11:37:07.365Z,12.33
2018-08-22T11:39:51.509Z,12.00
2018-08-22T11:42:28.862Z,14.97
2018-08-22T11:44:59.915Z,14.93
2018-08-22T11:47:36.801Z,11.30
2018-08-22T11:50:13.972Z,14.90
2018-08-22T11:52:50.526Z,12.20
2018-08-22T11:55:30.097Z,17.70
2018-08-22T11:58:07.411Z,17.30
2018-08-22T12:00:45.279Z,19.70
2018-08-22T12:03:20.970Z,20.73
2018-08-22T12:06:00.020Z,16.93
2018-08-22T12:08:35.955Z,14.23
2018-08-22T12:11:12.632Z,15.43
2018-08-22T12:13:49.348Z,13.73
2018-08-22T12:16:26.989Z,14.93
2018-08-22T12:19:03.564Z,15.83
2018-08-22T12:21:42.155Z,12.37
2018-08-22T12:24:18.919Z,15.60
2018-08-22T12:26:56.288Z,13.80
2018-08-22T12:29:32.350Z,16.10
2018-08-22T12:32:10.923Z,13.17
2018-08-22T12:34:47.945Z,14.17
2018-08-22T12:37:24.448Z,16.57
2018-08-22T12:40:03.174Z,15.27
2018-08-22T12:42:39.110Z,15.93
2018-08-22T12:45:19.018Z,12.20
2018-08-22T12:47:56.319Z,16.40
2018-08-22T12:50:33.325Z,18.53
2018-08-22T12:53:10.762Z,18.37
2018-08-22T12:55:47.706Z,16.37
2018-08-22T12:58:24.174Z,15.20
2018-08-22T13:01:03.831Z,13.93
2018-08-22T13:03:41.160Z,16.73
2018-08-22T13:06:18.084Z,16.83
2018-08-22T13:08:54.041Z,18.93
2018-08-22T13:11:30.952Z,16.30
2018-08-22T13:14:08.427Z,17.67
2018-08-22T13:16:46.194Z,18.30
2018-08-22T13:19:23.258Z,19.77
2018-08-22T13:22:00.762Z,13.30
2018-08-22T13:24:39.421Z,16.03
2018-08-22T13:27:15.202Z,18.67
2018-08-22T13:29:51.033Z,17.13
2018-08-22T13:32:28.039Z,20.13
2018-08-22T13:35:04.606Z,15.87
2018-08-22T13:37:42.250Z,18.33
2018-08-22T13:40:19.980Z,16.60
2018-08-22T13:42:57.256Z,20.70
2018-08-22T13:45:33.251Z,18.17
2018-08-22T13:48:13.687Z,16.00
2018-08-22T13:50:51.342Z,15.90
2018-08-22T13:53:28.949Z,13.90
2018-08-22T13:56:06.833Z,11.07
2018-08-22T13:58:42.752Z,13.67
2018-08-22T14:01:19.231Z,12.03
2018-08-22T14:03:57.465Z,14.93
2018-08-22T14:06:33.231Z,38.63
2018-08-22T14:09:11.990Z,11.73
2018-08-22T14:11:53.639Z,12.50
2018-08-22T14:14:31.535Z,13.90
2018-08-22T14:17:10.612Z,13.53
2018-08-22T14:19:47.858Z,15.97
2018-08-22T14:22:25.462Z,12.37
2018-08-22T14:25:02.769Z,13.03
2018-08-22T14:27:40.286Z,11.10
2018-08-22T14:30:17.821Z,10.97
2018-08-22T14:32:55.393Z,11.40
2018-08-22T14:35:38.279Z,10.27
2018-08-22T14:38:15.707Z,11.17
2018-08-22T14:40:52.739Z,13.33
2018-08-22T14:43:30.205Z,12.80
2018-08-22T14:46:08.282Z,13.33
2018-08-22T14:48:47.318Z,11.43
2018-08-22T14:51:24.549Z,13.07
2018-08-22T14:54:02.039Z,10.90
2018-08-22T14:56:38.362Z,13.43
2018-08-22T14:59:15.918Z,13.63
2018-08-22T15:01:55.094Z,13.57
2018-08-22T15:04:32.641Z,12.63
2018-08-22T15:07:08.588Z,15.00
2018-08-22T15:09:48.422Z,15.60
2018-08-22T15:12:24.383Z,10.90
2018-08-22T15:15:04.230Z,13.20
2018-08-22T15:17:41.653Z,12.57
2018-08-22T15:20:21.845Z,13.20
2018-08-22T15:22:59.368Z,11.30
2018-08-22T15:25:37.322Z,11.50
2018-08-22T15:28:15.101Z,11.33
2018-08-22T15:30:53.848Z,11.10
2018-08-22T15:33:31.153Z,11.70
2018-08-22T15:36:07.308Z,14.07
2018-08-22T15:38:43.289Z,11.00
2018-08-22T15:41:22.933Z,9.57
2018-08-22T15:43:59.902Z,11.47
2018-08-22T15:46:39.143Z,9.50
2018-08-22T15:49:16.252Z,10.30
2018-08-22T15:51:52.249Z,10.07
2018-08-22T15:54:31.580Z,11.40
2018-08-22T15:57:10.844Z,11.23
2018-08-22T15:59:48.182Z,10.50
2018-08-22T16:02:25.766Z,9.73
2018-08-22T16:05:02.001Z,9.30
2018-08-22T16:07:38.094Z,9.70
2018-08-22T16:10:15.117Z,9.03
2018-08-22T16:12:51.572Z,11.30
2018-08-22T16:15:29.659Z,9.40
2018-08-22T16:18:08.358Z,10.27
2018-08-22T16:20:55.148Z,8.80
2018-08-22T16:23:34.870Z,10.63
2018-08-22T16:26:11.313Z,9.63
2018-08-22T16:28:58.222Z,9.90
2018-08-22T16:31:45.156Z,8.37
2018-08-22T16:34:21.915Z,9.37
2018-08-22T16:36:58.596Z,10.10
2018-08-22T16:39:46.543Z,10.37
2018-08-22T16:42:19.308Z,10.50
2018-08-22T16:44:56.469Z,9.40
2018-08-22T16:47:35.771Z,10.97
2018-08-22T16:50:12.954Z,10.53
2018-08-22T16:52:48.909Z,10.80
2018-08-22T16:55:28.470Z,10.97
2018-08-22T16:58:06.927Z,12.33
2018-08-22T17:00:46.388Z,9.70
2018-08-22T17:03:24.231Z,10.90
2018-08-22T17:06:17.831Z,10.87
2018-08-22T17:08:55.386Z,9.70
2018-08-22T17:11:31.462Z,9.73
2018-08-22T17:14:07.207Z,9.83
2018-08-22T17:16:43.194Z,9.73
2018-08-22T17:19:20.532Z,14.43
2018-08-22T17:21:56.030Z,10.20
2018-08-22T17:24:33.379Z,9.50
2018-08-22T17:27:09.439Z,8.87
2018-08-22T17:29:45.797Z,9.57
2018-08-22T17:32:23.176Z,11.07
2018-08-22T17:34:59.060Z,9.30
2018-08-22T17:37:37.755Z,9.50
2018-08-22T17:40:16.690Z,10.23
2018-08-22T17:42:53.483Z,9.27
2018-08-22T17:45:39.349Z,10.27
2018-08-22T17:48:20.889Z,10.57
2018-08-22T17:50:58.799Z,9.73
2018-08-22T17:53:36.323Z,11.10
2018-08-22T17:56:12.142Z,9.80
2018-08-22T17:58:49.566Z,9.57
2018-08-22T18:01:27.025Z,10.10
2018-08-22T18:04:08.098Z,10.70
2018-08-22T18:06:49.460Z,9.67
2018-08-22T18:09:26.792Z,10.13
2018-08-22T18:12:03.931Z,10.93
2018-08-22T18:14:41.059Z,11.23
2018-08-22T18:17:18.469Z,11.10
2018-08-22T18:19:54.252Z,11.63
2018-08-22T18:22:33.331Z,10.57
2018-08-22T18:25:10.741Z,10.27
2018-08-22T18:27:46.954Z,10.23
2018-08-22T18:30:24.314Z,11.73
2018-08-22T18:33:00.361Z,11.40
2018-08-22T18:35:42.407Z,12.70
2018-08-22T18:38:24.142Z,12.33
2018-08-22T18:41:11.207Z,13.60
2018-08-22T18:43:50.868Z,15.40
2018-08-22T18:46:27.855Z,14.03
2018-08-22T18:49:05.849Z,15.60
2018-08-22T18:51:42.490Z,17.43
2018-08-22T18:54:18.954Z,18.57
2018-08-22T18:56:55.145Z,16.60
2018-08-22T18:59:31.105Z,19.20
2018-08-22T19:02:09.927Z,20.40
2018-08-22T19:04:47.019Z,19.13
2018-08-22T19:07:26.290Z,19.43
2018-08-22T19:10:03.435Z,20.13
2018-08-22T19:12:40.932Z,22.40
2018-08-22T19:15:17.060Z,21.73
2018-08-22T19:17:54.543Z,22.27
2018-08-22T19:20:31.836Z,24.53
2018-08-22T19:24:34.752Z,21.50
2018-08-22T19:27:05.430Z,26.10
2018-08-22T19:29:41.605Z,25.40
2018-08-22T19:32:19.109Z,23.67
2018-08-22T19:34:57.558Z,25.67
2018-08-22T19:37:35.329Z,27.47
2018-08-22T19:40:11.212Z,23.57
2018-08-22T19:42:48.390Z,24.37
2018-08-22T19:45:25.681Z,23.50
2018-08-22T19:48:03.265Z,23.73
2018-08-22T19:50:40.998Z,24.93
2018-08-22T19:53:17.570Z,25.40
2018-08-22T19:55:56.787Z,24.53
2018-08-22T19:58:35.134Z,23.87
2018-08-22T20:01:11.694Z,22.87
2018-08-22T20:03:49.984Z,21.60
2018-08-22T20:06:26.696Z,22.93
2018-08-22T20:09:03.598Z,22.27
2018-08-22T20:11:41.159Z,23.10
2018-08-22T20:14:17.898Z,22.40
2018-08-22T20:16:55.797Z,22.00
2018-08-22T20:19:38.921Z,21.63
2018-08-22T20:22:16.142Z,22.27
2018-08-22T20:24:53.145Z,23.33
2018-08-22T20:27:30.117Z,23.87
2018-08-22T20:30:11.237Z,21.37
2018-08-22T20:32:58.607Z,21.70
2018-08-22T20:35:41.141Z,21.90
2018-08-22T20:38:17.047Z,22.63
2018-08-22T20:41:03.230Z,23.53
2018-08-22T20:43:40.587Z,22.40
2018-08-22T20:46:17.832Z,22.60
2018-08-22T20:48:54.961Z,24.10
2018-08-22T20:51:34.019Z,22.70
2018-08-22T20:54:12.844Z,22.03
2018-08-22T20:56:54.952Z,22.73
2018-08-22T20:59:25.982Z,23.03
2018-08-22T21:02:06.036Z,23.13
2018-08-22T21:04:43.284Z,23.87
2018-08-22T21:07:23.546Z,24.40
2018-08-22T21:09:59.506Z,25.07
2018-08-22T21:12:35.247Z,23.30
2018-08-22T21:15:11.266Z,24.73
2018-08-22T21:17:48.287Z,24.50
2018-08-22T21:20:25.887Z,25.53
2018-08-22T21:23:02.286Z,24.83
2018-08-22T21:25:39.909Z,25.33
2018-08-22T21:28:16.019Z,24.57
2018-08-22T21:31:01.339Z,27.40
2018-08-22T21:33:38.703Z,27.10
2018-08-22T21:36:16.935Z,26.30
2018-08-22T21:38:54.196Z,27.33
2018-08-22T21:41:34.372Z,27.17
2018-08-22T21:44:11.036Z,26.43
2018-08-22T21:46:55.670Z,27.83
2018-08-22T21:49:37.641Z,28.13
2018-08-22T21:52:14.495Z,28.40
2018-08-22T21:54:48.173Z,29.33
